Time;durP1;ratioP1;P1;durP2;ratioP2;P2;SDS_P1;SDS_P2;PMS_P1;PMS_P2;Temp;Humidity;BMP_temperature;BMP_pressure;BME280_temperature;BME280_humidity;BME280_pressure;Samples;Min_cycle;Max_cycle;Signal;HPM_P1;HPM_P2
2024/03/25 00:01:43;;;;;;;15.80;8.40;;;;;;;-147.86;100.00;-17609.17;105249;1264;60345;-46
2024/03/25 00:04:10;;;;;;;13.20;8.00;;;;;;;-147.86;100.00;-17609.17;105195;1265;60597;-45
2024/03/25 00:06:38;;;;;;;16.00;8.40;;;;;;;-147.86;100.00;-17609.17;105191;1264;73683;-45
2024/03/25 00:09:07;;;;;;;16.20;8.50;;;;;;;-147.86;100.00;-17609.17;105245;1267;65455;-47
2024/03/25 00:11:34;;;;;;;19.90;8.10;;;;;;;-147.86;100.00;-17609.17;105251;1266;72553;-45
2024/03/25 00:14:01;;;;;;;14.70;7.80;;;;;;;-147.86;100.00;-17609.17;105195;1265;60364;-45
2024/03/25 00:16:28;;;;;;;15.40;9.10;;;;;;;-147.86;100.00;-17609.17;105221;1262;60413;-45
2024/03/25 00:18:55;;;;;;;14.70;8.60;;;;;;;-147.86;100.00;-17609.17;105548;1260;73555;-44
2024/03/25 00:21:22;;;;;;;14.20;8.60;;;;;;;-147.86;100.00;-17609.17;105576;1260;65334;-45
2024/03/25 00:23:49;;;;;;;14.90;8.90;;;;;;;-147.86;100.00;-17609.17;105579;1260;72610;-45
2024/03/25 00:26:17;;;;;;;18.60;9.30;;;;;;;-147.86;100.00;-17609.17;105598;1257;61874;-48
2024/03/25 00:28:44;;;;;;;19.80;8.80;;;;;;;-147.86;100.00;-17609.17;105615;1258;60423;-44
2024/03/25 00:31:11;;;;;;;17.20;8.70;;;;;;;-147.86;100.00;-17609.17;105611;1260;73608;-48
2024/03/25 00:33:37;;;;;;;18.60;9.90;;;;;;;-147.86;100.00;-17609.17;105612;1260;65580;-46
2024/03/25 00:36:05;;;;;;;21.10;10.00;;;;;;;-147.86;100.00;-17609.17;105601;1257;72557;-46
2024/03/25 00:38:32;;;;;;;17.80;9.50;;;;;;;-147.86;100.00;-17609.17;105628;1260;60792;-45
2024/03/25 00:40:59;;;;;;;16.40;9.00;;;;;;;-147.86;100.00;-17609.17;105640;1257;61044;-46
2024/03/25 00:43:26;;;;;;;17.10;8.70;;;;;;;-147.86;100.00;-17609.17;105672;1257;73786;-45
2024/03/25 00:45:53;;;;;;;20.20;8.90;;;;;;;-147.86;100.00;-17609.17;105644;1260;65375;-47
2024/03/25 00:48:21;;;;;;;19.00;8.60;;;;;;;-147.86;100.00;-17609.17;105634;1260;72492;-48
2024/03/25 00:50:47;;;;;;;18.40;9.10;;;;;;;-147.86;100.00;-17609.17;105553;1260;60440;-45
2024/03/25 00:53:14;;;;;;;13.20;8.30;;;;;;;-147.86;100.00;-17609.17;105611;1257;60594;-49
2024/03/25 00:55:41;;;;;;;15.70;8.90;;;;;;;-147.86;100.00;-17609.17;105655;1261;73849;-46
2024/03/25 00:58:08;;;;;;;17.50;9.20;;;;;;;-147.86;100.00;-17609.17;105595;1257;65526;-44
2024/03/25 01:00:35;;;;;;;13.40;8.60;;;;;;;-147.86;100.00;-17609.17;105538;1257;72639;-45
2024/03/25 01:03:03;;;;;;;18.40;8.70;;;;;;;-147.86;100.00;-17609.17;105564;1260;60460;-46
2024/03/25 01:05:29;;;;;;;17.20;9.60;;;;;;;-147.86;100.00;-17609.17;105595;1256;60410;-45
2024/03/25 01:07:56;;;;;;;14.00;9.30;;;;;;;-147.86;100.00;-17609.17;105595;1260;73762;-45
2024/03/25 01:10:23;;;;;;;18.20;9.60;;;;;;;-147.86;100.00;-17609.17;105595;1257;65458;-47
2024/03/25 01:12:50;;;;;;;17.60;9.60;;;;;;;-147.86;100.00;-17609.17;105597;1261;72361;-46
2024/03/25 01:15:17;;;;;;;21.00;8.90;;;;;;;-147.86;100.00;-17609.17;105591;1260;61935;-45
2024/03/25 01:17:44;;;;;;;16.90;10.10;;;;;;;-147.86;100.00;-17609.17;105616;1257;60425;-46
2024/03/25 01:20:11;;;;;;;20.60;9.70;;;;;;;-147.86;100.00;-17609.17;105615;1257;73705;-46
2024/03/25 01:22:38;;;;;;;19.20;11.10;;;;;;;-147.86;100.00;-17609.17;105623;1260;65374;-47
2024/03/25 01:25:06;;;;;;;19.70;9.90;;;;;;;-147.86;100.00;-17609.17;105622;1260;73147;-49
2024/03/25 01:27:33;;;;;;;20.90;10.40;;;;;;;-147.86;100.00;-17609.17;105608;1257;61912;-48
2024/03/25 01:30:01;;;;;;;18.50;9.40;;;;;;;-147.86;100.00;-17609.17;105637;1258;60447;-49
2024/03/25 01:32:29;;;;;;;23.20;10.30;;;;;;;-147.86;100.00;-17609.17;105611;1260;73704;-49
2024/03/25 01:34:56;;;;;;;16.10;10.10;;;;;;;-147.86;100.00;-17609.17;105638;1260;64759;-45
2024/03/25 01:37:23;;;;;;;19.20;10.80;;;;;;;-147.86;100.00;-17609.17;105626;1257;72631;-46
2024/03/25 01:39:50;;;;;;;19.00;10.50;;;;;;;-147.86;100.00;-17609.17;105519;1256;61629;-47
2024/03/25 01:42:17;;;;;;;17.10;11.30;;;;;;;-147.86;100.00;-17609.17;105595;1257;60536;-50
2024/03/25 01:44:43;;;;;;;21.00;10.70;;;;;;;-147.86;100.00;-17609.17;105607;1260;73729;-49
2024/03/25 01:47:10;;;;;;;22.30;10.50;;;;;;;-147.86;100.00;-17609.17;105565;1260;65198;-47
2024/03/25 01:49:37;;;;;;;21.50;10.70;;;;;;;-147.86;100.00;-17609.17;105540;1262;72710;-45
2024/03/25 01:52:05;;;;;;;21.50;11.60;;;;;;;-147.86;100.00;-17609.17;105593;1260;60416;-46
2024/03/25 01:54:32;;;;;;;25.30;11.80;;;;;;;-147.86;100.00;-17609.17;105615;1257;60359;-45
2024/03/25 01:56:59;;;;;;;20.10;11.60;;;;;;;-147.86;100.00;-17609.17;105560;1258;73772;-45
2024/03/25 01:59:26;;;;;;;22.80;11.20;;;;;;;-147.86;100.00;-17605.03;105581;1256;65499;-46
2024/03/25 02:01:53;;;;;;;23.00;12.70;;;;;;;-147.86;100.00;-17527.73;105531;1257;71666;-46
2024/03/25 02:04:19;;;;;;;22.60;12.60;;;;;;;-147.86;100.00;-17368.62;105572;1261;60331;-46
2024/03/25 02:06:46;;;;;;;22.00;12.60;;;;;;;-147.86;100.00;-17155.52;105501;1263;60450;-46
2024/03/25 02:09:13;;;;;;;23.20;12.60;;;;;;;-147.86;100.00;-16842.45;105522;1260;73797;-45
2024/03/25 02:11:40;;;;;;;25.20;12.50;;;;;;;-147.86;100.00;-16481.54;105557;1261;65348;-45
2024/03/25 02:14:07;;;;;;;24.20;12.40;;;;;;;-147.86;100.00;-16080.49;105580;1260;72507;-46
2024/03/25 02:16:34;;;;;;;20.90;13.30;;;;;;;-147.86;100.00;-15655.49;105564;1256;61774;-45
2024/03/25 02:19:02;;;;;;;27.60;14.10;;;;;;;-147.86;100.00;-15178.36;105628;1256;60780;-45
2024/03/25 02:21:30;;;;;;;25.30;14.10;;;;;;;-147.86;100.00;-14657.97;105578;1256;73597;-46
2024/03/25 02:23:57;;;;;;;26.50;13.70;;;;;;;-147.86;100.00;-14038.72;105202;1260;64667;-47
2024/03/25 02:26:24;;;;;;;27.30;14.50;;;;;;;-147.86;100.00;-13270.03;105408;1261;72460;-50
2024/03/25 02:28:51;;;;;;;28.70;14.20;;;;;;;-147.86;100.00;-12557.55;105576;1260;60912;-46
2024/03/25 02:31:18;;;;;;;34.30;15.00;;;;;;;-147.86;100.00;-11887.41;105592;1257;60467;-46
2024/03/25 02:33:45;;;;;;;28.60;14.00;;;;;;;-147.86;100.00;-11328.74;105563;1258;73800;-45
2024/03/25 02:36:12;;;;;;;26.30;14.20;;;;;;;-147.86;100.00;-10797.78;105569;1261;64674;-44
2024/03/25 02:38:39;;;;;;;26.00;14.00;;;;;;;-147.86;100.00;-10281.82;105581;1257;72135;-46
2024/03/25 02:41:06;;;;;;;28.70;14.90;;;;;;;-147.86;100.00;-9855.79;105480;1260;60415;-46
2024/03/25 02:43:33;;;;;;;26.30;14.50;;;;;;;-147.86;100.00;-9433.19;105557;1258;60435;-45
2024/03/25 02:46:00;;;;;;;31.00;14.70;;;;;;;-147.86;100.00;-9074.29;105668;1260;73658;-45
2024/03/25 02:48:28;;;;;;;31.70;13.70;;;;;;;-147.86;100.00;-8747.42;105610;1260;64482;-45
2024/03/25 02:50:55;;;;;;;30.70;15.10;;;;;;;-147.86;100.00;-8356.39;105652;1258;72591;-47
2024/03/25 02:53:22;;;;;;;28.50;14.80;;;;;;;-147.86;100.00;-8000.08;105608;1260;60376;-46
2024/03/25 02:55:49;;;;;;;31.30;14.30;;;;;;;-147.86;100.00;-7595.45;105614;1256;60431;-45
2024/03/25 02:58:17;;;;;;;32.00;13.20;;;;;;;-147.86;100.00;-7258.01;105553;1256;73992;-46
2024/03/25 03:00:44;;;;;;;30.60;14.60;;;;;;;-147.86;100.00;-6768.65;105814;1253;64801;-45
2024/03/25 03:03:11;;;;;;;33.10;14.30;;;;;;;-147.86;100.00;-6482.18;105869;1257;72718;-46
2024/03/25 03:05:38;;;;;;;34.60;14.30;;;;;;;-147.86;100.00;-7215.92;105858;1257;61177;-45
2024/03/25 03:08:05;;;;;;;33.50;15.70;;;;;;;-147.86;100.00;-6901.23;105849;1252;61265;-47
2024/03/25 03:10:32;;;;;;;25.50;14.30;;;;;;;-147.86;100.00;-6424.18;105884;1253;74468;-45
2024/03/25 03:13:00;;;;;;;27.50;13.60;;;;;;;-147.86;100.00;-5928.12;105880;1254;65427;-46
2024/03/25 03:15:26;;;;;;;28.60;13.70;;;;;;;-147.86;100.00;-5513.58;105888;1257;72679;-48
2024/03/25 03:17:53;;;;;;;27.20;14.20;;;;;;;-147.86;100.00;-5032.89;105850;1254;61218;-46
2024/03/25 03:20:20;;;;;;;30.10;14.80;;;;;;;-147.86;100.00;-4578.42;105873;1253;61228;-46
2024/03/25 03:22:47;;;;;;;24.60;14.50;;;;;;;-147.86;100.00;-4082.89;105835;1257;74503;-46
2024/03/25 03:25:16;;;;;;;29.10;15.20;;;;;;;-147.86;100.00;-3574.15;105850;1254;65425;-45
2024/03/25 03:27:43;;;;;;;24.70;14.90;;;;;;;-147.86;100.00;-3021.56;105845;1257;72573;-47
2024/03/25 03:30:11;;;;;;;26.50;14.10;;;;;;;-147.86;100.00;-1960.40;105841;1253;62006;-45
2024/03/25 03:32:38;;;;;;;26.30;14.30;;;;;;;-147.86;100.00;-1197.01;105944;1253;61226;-46
2024/03/25 03:35:05;;;;;;;34.20;15.30;;;;;;;-147.86;100.00;-188.39;105880;1257;75184;-45
2024/03/25 03:37:32;;;;;;;31.10;15.70;;;;;;;-147.86;100.00;473.46;105843;1256;65324;-47
2024/03/25 03:39:59;;;;;;;31.20;15.60;;;;;;;-147.86;100.00;1149.75;105866;1257;72470;-46
2024/03/25 03:42:26;;;;;;;30.70;16.10;;;;;;;-147.86;100.00;1647.16;105844;1254;61661;-46
2024/03/25 03:44:53;;;;;;;32.00;15.40;;;;;;;-147.86;100.00;2142.72;105823;1253;61350;-45
2024/03/25 03:47:19;;;;;;;31.70;15.60;;;;;;;-147.86;100.00;2774.00;105844;1254;74502;-45
2024/03/25 03:49:47;;;;;;;28.60;15.80;;;;;;;-147.86;100.00;3521.66;105876;1253;65241;-47
2024/03/25 03:52:13;;;;;;;28.40;15.20;;;;;;;-147.86;100.00;4211.66;105872;1255;72461;-47
2024/03/25 03:54:40;;;;;;;29.80;14.80;;;;;;;-147.86;100.00;4868.46;105928;1252;61806;-46
2024/03/25 03:57:07;;;;;;;30.90;15.60;;;;;;;-147.86;100.00;5556.80;105921;1253;61324;-45
2024/03/25 03:59:34;;;;;;;31.90;16.80;;;;;;;-147.86;100.00;6272.02;105905;1254;74660;-45
2024/03/25 04:02:01;;;;;;;35.00;16.80;;;;;;;-147.86;100.00;7122.02;105879;1253;64552;-45
2024/03/25 04:04:28;;;;;;;39.40;17.70;;;;;;;-147.86;100.00;8122.40;105902;1253;72749;-44
2024/03/25 04:06:55;;;;;;;28.60;15.30;;;;;;;-147.86;100.00;9222.37;105821;1253;61807;-47
2024/03/25 04:09:23;;;;;;;27.90;16.30;;;;;;;-147.86;100.00;10250.43;105871;1252;61226;-46
2024/03/25 04:11:50;;;;;;;36.90;18.30;;;;;;;-147.86;100.00;11122.39;105947;1252;73507;-46
2024/03/25 04:14:17;;;;;;;32.10;16.50;;;;;;;-147.86;100.00;12342.73;105919;1254;65441;-45
2024/03/25 04:16:44;;;;;;;35.50;17.10;;;;;;;-147.86;100.00;13378.20;105968;1257;72592;-44
2024/03/25 04:19:11;;;;;;;35.10;16.80;;;;;;;-147.86;100.00;14377.80;105881;1254;61743;-46
2024/03/25 04:21:39;;;;;;;29.30;18.00;;;;;;;-147.86;100.00;15170.41;105874;1253;61319;-47
2024/03/25 04:24:06;;;;;;;31.90;18.00;;;;;;;-147.86;100.00;15606.33;105868;1256;74457;-46
2024/03/25 04:26:33;;;;;;;31.10;17.30;;;;;;;-147.86;100.00;16309.69;105808;1254;65544;-44
2024/03/25 04:29:00;;;;;;;32.80;17.90;;;;;;;-147.86;100.00;16808.66;105870;1257;72391;-45
2024/03/25 04:31:28;;;;;;;37.90;17.90;;;;;;;-147.86;100.00;17290.56;105895;1253;61231;-45
2024/03/25 04:33:55;;;;;;;34.90;18.00;;;;;;;-147.86;100.00;17728.98;106008;1253;61794;-46
2024/03/25 04:36:21;;;;;;;38.20;19.10;;;;;;;-147.86;100.00;18216.07;105844;1253;74458;-45
2024/03/25 04:38:49;;;;;;;32.60;19.90;;;;;;;-147.86;100.00;18570.93;105908;1256;64380;-46
2024/03/25 04:41:16;;;;;;;35.70;19.70;;;;;;;-147.86;100.00;18827.77;105874;1257;72632;-46
2024/03/25 04:43:43;;;;;;;32.50;18.50;;;;;;;-147.86;100.00;19136.32;105822;1253;61983;-46
2024/03/25 04:46:11;;;;;;;38.30;19.80;;;;;;;-147.86;100.00;19281.87;105876;1253;61257;-46
2024/03/25 04:48:37;;;;;;;38.80;19.70;;;;;;;-147.86;100.00;19387.40;105850;1257;74489;-47
2024/03/25 04:51:05;;;;;;;35.50;19.80;;;;;;;-147.86;100.00;19709.23;105866;1253;64678;-46
2024/03/25 04:53:31;;;;;;;34.50;19.40;;;;;;;-147.86;100.00;19909.32;105923;1254;72518;-47
2024/03/25 04:55:58;;;;;;;36.60;18.70;;;;;;;-147.86;100.00;20156.07;105934;1253;61933;-47
2024/03/25 04:58:26;;;;;;;35.70;20.10;;;;;;;-147.86;100.00;20256.95;105949;1257;61113;-45
2024/03/25 05:00:55;;;;;;;35.40;19.50;;;;;;;-147.86;100.00;20324.76;105906;1256;73171;-46
2024/03/25 05:03:22;;;;;;;39.60;21.10;;;;;;;-147.86;100.00;20731.88;105877;1253;65438;-45
2024/03/25 05:05:48;;;;;;;37.90;19.00;;;;;;;-147.86;100.00;21012.19;105829;1253;72588;-45
2024/03/25 05:08:15;;;;;;;38.00;19.90;;;;;;;-147.86;100.00;21158.22;105866;1253;62100;-49
2024/03/25 05:10:43;;;;;;;32.80;18.10;;;;;;;-147.86;100.00;21414.80;105811;1252;61197;-47
2024/03/25 05:13:09;;;;;;;34.80;18.90;;;;;;;-147.86;100.00;21567.48;105898;1253;74708;-47
2024/03/25 05:15:36;;;;;;;37.60;19.80;;;;;;;-147.86;100.00;21830.32;105912;1257;65596;-46
2024/03/25 05:18:03;;;;;;;34.60;18.60;;;;;;;-147.86;100.00;22029.32;105890;1254;72527;-46
2024/03/25 05:20:30;;;;;;;35.50;18.80;;;;;;;-147.86;100.00;22185.92;105862;1253;61813;-46
2024/03/25 05:23:00;;;;;;;34.40;19.30;;;;;;;-147.86;100.00;22104.22;105887;1253;61212;-45
2024/03/25 05:25:28;;;;;;;38.90;19.90;;;;;;;-147.86;100.00;22266.94;105874;1253;73426;-46
2024/03/25 05:27:55;;;;;;;39.30;20.30;;;;;;;-147.86;100.00;22316.39;105868;1253;65430;-48
2024/03/25 05:30:23;;;;;;;41.50;19.40;;;;;;;-147.86;100.00;22293.39;105878;1253;72557;-46
2024/03/25 05:32:50;;;;;;;36.70;18.70;;;;;;;-147.86;100.00;22248.60;105858;1253;61804;-46
2024/03/25 05:35:16;;;;;;;34.50;18.90;;;;;;;-147.86;100.00;22190.15;105857;1253;61265;-45
2024/03/25 05:37:43;;;;;;;36.10;18.80;;;;;;;-147.86;100.00;22148.88;105878;1257;74713;-46
2024/03/25 05:40:11;;;;;;;44.70;20.80;;;;;;;-147.86;100.00;22266.13;105876;1253;65388;-45
2024/03/25 05:42:39;;;;;;;39.00;20.00;;;;;;;-147.86;100.00;22329.31;105882;1253;72476;-48
2024/03/25 05:45:06;;;;;;;34.90;19.40;;;;;;;-147.86;100.00;22566.82;105828;1253;62094;-47
2024/03/25 05:47:33;;;;;;;30.50;17.90;;;;;;;-147.86;100.00;22346.36;105892;1253;61350;-47
2024/03/25 05:50:02;;;;;;;35.70;20.20;;;;;;;-147.86;100.00;22160.15;105841;1253;74622;-47
2024/03/25 05:52:29;;;;;;;35.80;19.50;;;;;;;-147.86;100.00;21775.88;105859;1257;64645;-47
2024/03/25 05:54:55;;;;;;;37.50;18.80;;;;;;;-147.86;100.00;21746.17;105852;1254;72500;-48
2024/03/25 05:57:22;;;;;;;35.80;18.80;;;;;;;-147.86;100.00;21499.27;105814;1253;61141;-46
2024/03/25 05:59:49;;;;;;;34.40;18.50;;;;;;;-147.86;100.00;21115.31;105943;1253;61229;-45
2024/03/25 06:02:16;;;;;;;31.50;17.20;;;;;;;-147.86;100.00;20365.82;105874;1256;74499;-46
2024/03/25 06:04:43;;;;;;;35.90;17.40;;;;;;;-147.86;100.00;19649.21;105904;1257;65505;-47
2024/03/25 06:07:09;;;;;;;37.20;18.60;;;;;;;-147.86;100.00;18791.82;105879;1256;72515;-46
2024/03/25 06:09:37;;;;;;;32.80;18.40;;;;;;;-147.86;100.00;17604.00;105871;1256;61139;-47
2024/03/25 06:12:04;;;;;;;31.30;17.20;;;;;;;-147.86;100.00;16730.71;105885;1253;61258;-48
2024/03/25 06:14:31;;;;;;;31.50;16.50;;;;;;;-147.86;100.00;15577.34;105880;1257;74501;-46
2024/03/25 06:16:58;;;;;;;32.10;15.20;;;;;;;-147.86;100.00;13831.84;105869;1253;65278;-48
2024/03/25 06:19:25;;;;;;;31.70;15.60;;;;;;;-147.86;100.00;11846.83;105876;1256;72717;-46
2024/03/25 06:21:52;;;;;;;34.60;16.20;;;;;;;-147.86;100.00;10077.81;105862;1257;61251;-45
2024/03/25 06:24:19;;;;;;;30.20;15.70;;;;;;;-147.86;100.00;7892.87;105899;1253;61325;-47
2024/03/25 06:26:46;;;;;;;28.30;16.30;;;;;;;-147.86;100.00;5689.31;105870;1253;74739;-45
2024/03/25 06:29:14;;;;;;;30.50;15.60;;;;;;;-147.86;100.00;3541.69;105866;1253;65746;-47
2024/03/25 06:34:27;;;;;;;27.90;14.50;;;;;;;-147.86;100.00;-1313.51;105596;1257;61945;-45
2024/03/25 06:36:54;;;;;;;30.80;15.50;;;;;;;-147.86;100.00;-1328.74;105696;1252;61238;-45
2024/03/25 06:39:21;;;;;;;27.50;15.60;;;;;;;-147.86;100.00;-2613.80;105836;1253;75778;-51
2024/03/25 06:41:48;;;;;;;29.50;15.30;;;;;;;-147.86;100.00;-2671.16;105882;1256;64586;-49
2024/03/25 06:44:15;;;;;;;25.00;13.90;;;;;;;-147.86;100.00;-2463.99;105803;1257;72587;-46
2024/03/25 06:46:42;;;;;;;24.60;13.70;;;;;;;-147.86;100.00;-2550.22;105811;1253;62625;-44
2024/03/25 06:49:09;;;;;;;22.80;13.70;;;;;;;-147.86;100.00;-2792.55;105854;1252;61231;-46
2024/03/25 06:51:36;;;;;;;26.60;15.00;;;;;;;-147.86;100.00;-3923.94;105848;1253;76027;-46
2024/03/25 06:54:03;;;;;;;29.60;14.50;;;;;;;-147.86;100.00;-5431.28;105851;1257;66854;-46
2024/03/25 06:56:30;;;;;;;25.60;13.90;;;;;;;-147.86;100.00;-7470.27;105904;1252;72597;-45
2024/03/25 06:58:57;;;;;;;32.00;13.20;;;;;;;-147.86;100.00;-9292.99;105829;1253;61942;-46
2024/03/25 07:01:24;;;;;;;28.90;14.50;;;;;;;-147.86;100.00;-11539.23;105891;1253;61500;-47
2024/03/25 07:03:52;;;;;;;33.10;14.30;;;;;;;-147.86;100.00;-14188.48;105828;1254;74513;-47
2024/03/25 07:06:19;;;;;;;26.60;15.30;;;;;;;-147.86;100.00;-16238.62;105814;1253;64565;-47
2024/03/25 07:08:47;;;;;;;29.10;14.20;;;;;;;-147.86;100.00;-17263.85;105855;1253;72613;-46
2024/03/25 07:11:14;;;;;;;21.60;12.60;;;;;;;-147.86;100.00;-17609.17;105871;1253;62977;-45
2024/03/25 07:13:41;;;;;;;23.20;12.10;;;;;;;-147.86;100.00;-17609.17;105841;1253;61283;-44
2024/03/25 07:16:08;;;;;;;28.70;12.60;;;;;;;-147.86;100.00;-17609.17;105817;1254;75961;-45
2024/03/25 07:18:35;;;;;;;21.20;13.30;;;;;;;-147.86;100.00;-17609.17;105818;1256;64515;-46
2024/03/25 07:21:03;;;;;;;17.90;12.10;;;;;;;-147.86;100.00;-17609.17;105847;1253;71474;-46
2024/03/25 07:23:30;;;;;;;23.00;12.30;;;;;;;-147.86;100.00;-17609.17;105853;1253;61827;-45
2024/03/25 07:25:58;;;;;;;28.30;11.70;;;;;;;-147.86;100.00;-17609.17;105874;1253;61582;-46
2024/03/25 07:28:24;;;;;;;24.60;12.40;;;;;;;-147.86;100.00;-17609.17;105897;1253;75850;-46
2024/03/25 07:30:52;;;;;;;23.60;12.90;;;;;;;-147.86;100.00;-17609.17;105851;1257;65857;-46
2024/03/25 07:33:19;;;;;;;16.20;10.90;;;;;;;-147.86;100.00;-17609.17;105883;1253;74187;-46
2024/03/25 07:35:46;;;;;;;18.20;11.60;;;;;;;-147.86;100.00;-17609.17;105846;1253;63106;-46
2024/03/25 07:38:13;;;;;;;23.80;11.40;;;;;;;-147.86;100.00;-17609.17;105868;1253;61251;-45
2024/03/25 07:40:40;;;;;;;25.00;11.30;;;;;;;-147.86;100.00;-17609.17;105826;1252;75894;-47
2024/03/25 07:43:07;;;;;;;17.90;11.80;;;;;;;-147.86;100.00;-17609.17;105872;1257;65744;-46
2024/03/25 07:45:34;;;;;;;20.60;12.30;;;;;;;-147.86;100.00;-17609.17;105878;1257;73806;-47
2024/03/25 07:48:01;;;;;;;22.20;12.00;;;;;;;-147.86;100.00;-17609.17;105860;1253;63286;-45
2024/03/25 07:50:29;;;;;;;25.70;10.90;;;;;;;-147.86;100.00;-17609.17;105880;1253;61536;-45
2024/03/25 07:52:56;;;;;;;22.70;11.30;;;;;;;-147.86;100.00;-17609.17;105887;1254;76027;-45
2024/03/25 07:55:23;;;;;;;20.50;11.80;;;;;;;-147.86;100.00;-17609.17;105905;1257;66210;-45
2024/03/25 07:57:50;;;;;;;23.00;12.30;;;;;;;-147.86;100.00;-17609.17;105842;1253;73816;-46
2024/03/25 08:00:17;;;;;;;19.90;11.70;;;;;;;-147.86;100.00;-17609.17;105843;1253;61549;-47
2024/03/25 08:02:44;;;;;;;19.80;11.20;;;;;;;-147.86;100.00;-17609.17;105866;1253;61433;-46
2024/03/25 08:05:11;;;;;;;15.60;9.30;;;;;;;-147.86;100.00;-17609.17;105839;1257;74558;-46
2024/03/25 08:07:38;;;;;;;17.60;10.80;;;;;;;-147.86;100.00;-17609.17;105825;1256;66788;-47
2024/03/25 08:10:05;;;;;;;15.80;10.50;;;;;;;-147.86;100.00;-17609.17;105774;1253;74032;-48
2024/03/25 08:12:33;;;;;;;21.50;12.50;;;;;;;-147.86;100.00;-17609.17;105807;1253;61556;-45
2024/03/25 08:15:00;;;;;;;33.90;12.40;;;;;;;-147.86;100.00;-17609.17;105637;1253;61664;-47
2024/03/25 08:17:27;;;;;;;19.50;10.00;;;;;;;-147.86;100.00;-17609.17;105625;1253;75785;-46
2024/03/25 08:19:54;;;;;;;21.10;10.30;;;;;;;-147.86;100.00;-17609.17;105688;1253;65882;-47
2024/03/25 08:22:21;;;;;;;23.70;11.10;;;;;;;-147.86;100.00;-17609.17;105729;1253;72505;-52
2024/03/25 08:24:48;;;;;;;25.20;11.80;;;;;;;-147.86;100.00;-17609.17;105829;1256;61575;-52
2024/03/25 08:27:15;;;;;;;20.30;10.60;;;;;;;-147.86;100.00;-17609.17;105887;1254;61537;-47
2024/03/25 08:29:42;;;;;;;26.10;9.00;;;;;;;-147.86;100.00;-17609.17;105847;1256;75857;-46
2024/03/25 08:32:09;;;;;;;19.20;8.40;;;;;;;-147.86;100.00;-17609.17;105887;1253;66919;-50
2024/03/25 08:34:36;;;;;;;22.20;9.80;;;;;;;-147.86;100.00;-17609.17;105921;1253;73914;-46
2024/03/25 08:37:04;;;;;;;15.60;9.90;;;;;;;-147.86;100.00;-17609.17;105890;1253;61591;-45
2024/03/25 08:39:31;;;;;;;12.20;8.80;;;;;;;-147.86;100.00;-17609.17;105863;1253;61242;-47
2024/03/25 08:41:58;;;;;;;15.10;9.40;;;;;;;-147.86;100.00;-17609.17;105891;1253;74942;-45
2024/03/25 08:44:25;;;;;;;21.20;9.80;;;;;;;-147.86;100.00;-17609.17;105861;1257;65669;-47
2024/03/25 08:46:52;;;;;;;12.90;7.30;;;;;;;-147.86;100.00;-17609.17;105863;1257;74008;-47
2024/03/25 08:49:18;;;;;;;14.50;7.40;;;;;;;-147.86;100.00;-17609.17;105810;1253;63288;-46
2024/03/25 08:51:47;;;;;;;13.80;7.80;;;;;;;-147.86;100.00;-17609.17;105930;1253;61374;-47
2024/03/25 08:54:14;;;;;;;16.00;9.20;;;;;;;-147.86;100.00;-17609.17;105876;1257;75700;-47
2024/03/25 08:56:41;;;;;;;13.50;8.50;;;;;;;-147.86;100.00;-17609.17;105845;1253;66586;-47
2024/03/25 08:59:09;;;;;;;14.30;8.20;;;;;;;-147.86;100.00;-17609.17;105826;1253;73900;-46
2024/03/25 09:01:36;;;;;;;25.30;8.80;;;;;;;-147.86;100.00;-17609.17;105822;1253;61590;-48
2024/03/25 09:04:03;;;;;;;20.30;9.80;;;;;;;-147.86;100.00;-17609.17;105866;1253;61219;-45
2024/03/25 09:06:37;;;;;;;15.90;9.70;;;;;;;-147.86;100.00;-17609.17;105897;1253;76201;-46
2024/03/25 09:11:51;;;;;;;17.30;11.00;;;;;;;-147.86;100.00;-17609.17;105848;1253;73958;-45
2024/03/25 09:14:18;;;;;;;14.70;9.60;;;;;;;-147.86;100.00;-17609.17;105850;1256;61707;-46
2024/03/25 09:16:45;;;;;;;18.50;9.00;;;;;;;-147.86;100.00;-17609.17;105835;1253;61602;-47
2024/03/25 09:19:12;;;;;;;16.30;9.20;;;;;;;-147.86;100.00;-17609.17;105813;1253;76225;-46
2024/03/25 09:21:39;;;;;;;15.60;10.30;;;;;;;-147.86;100.00;-17609.17;105834;1253;66497;-48
2024/03/25 09:24:06;;;;;;;15.50;9.90;;;;;;;-147.86;100.00;-17609.17;105817;1253;73088;-47
2024/03/25 09:26:33;;;;;;;18.80;9.30;;;;;;;-147.86;100.00;-17609.17;105853;1257;61647;-48
2024/03/25 09:29:02;;;;;;;17.30;10.00;;;;;;;-147.86;100.00;-17609.17;105865;1253;61514;-47
2024/03/25 09:31:30;;;;;;;19.90;11.10;;;;;;;-147.86;100.00;-17609.17;105851;1256;75867;-46
2024/03/25 09:33:56;;;;;;;20.80;8.60;;;;;;;-147.86;100.00;-17609.17;105859;1253;66800;-48
2024/03/25 09:36:23;;;;;;;13.60;7.90;;;;;;;-147.86;100.00;-17609.17;105843;1254;74059;-46
2024/03/25 09:38:52;;;;;;;15.60;7.30;;;;;;;-147.86;100.00;-17609.17;105882;1257;62126;-45
2024/03/25 09:41:19;;;;;;;14.90;8.50;;;;;;;-147.86;100.00;-17609.17;105936;1252;61539;-46
2024/03/25 09:43:53;;;;;;;18.00;9.30;;;;;;;-147.86;100.00;-17609.17;105845;1254;75069;-47
2024/03/25 09:46:21;;;;;;;14.40;8.90;;;;;;;-147.86;100.00;-17609.17;105821;1257;65758;-47
2024/03/25 09:48:49;;;;;;;16.00;8.20;;;;;;;-147.86;100.00;-17609.17;105859;1254;73815;-49
2024/03/25 09:51:16;;;;;;;14.20;7.70;;;;;;;-147.86;100.00;-17609.17;105837;1252;62017;-48
2024/03/25 09:53:43;;;;;;;11.50;7.10;;;;;;;-147.86;100.00;-17609.17;105830;1257;61301;-46
2024/03/25 09:56:10;;;;;;;19.20;8.00;;;;;;;-147.86;100.00;-17609.17;105829;1256;74811;-46
2024/03/25 09:58:38;;;;;;;16.70;7.40;;;;;;;-147.86;100.00;-17609.17;105669;1258;66072;-47
2024/03/25 10:01:07;;;;;;;13.00;7.90;;;;;;;-147.86;100.00;-17609.17;105731;1253;70690;-47
2024/03/25 10:03:34;;;;;;;12.20;7.30;;;;;;;-147.86;100.00;-17609.17;105856;1257;61627;-47
2024/03/25 10:06:00;;;;;;;14.50;8.00;;;;;;;-147.86;100.00;-17609.17;105871;1253;61262;-48
2024/03/25 10:08:30;;;;;;;10.80;7.20;;;;;;;-147.86;100.00;-17609.17;105863;1256;75865;-46
2024/03/25 10:10:58;;;;;;;10.90;6.40;;;;;;;-147.86;100.00;-17609.17;105898;1252;66734;-48
2024/03/25 10:13:26;;;;;;;14.90;6.20;;;;;;;-147.86;100.00;-17609.17;105869;1253;73692;-49
2024/03/25 10:15:55;;;;;;;12.40;6.70;;;;;;;-147.86;100.00;-17609.17;105881;1256;61638;-46
2024/03/25 10:18:22;;;;;;;11.70;6.80;;;;;;;-147.86;100.00;-17609.17;105897;1253;61671;-48
2024/03/25 10:20:50;;;;;;;16.10;7.80;;;;;;;-147.86;100.00;-17609.17;105835;1254;75964;-47
2024/03/25 10:23:25;;;;;;;20.10;7.60;;;;;;;-147.86;100.00;-17609.17;105870;1257;66894;-46
2024/03/25 10:25:53;;;;;;;13.40;8.30;;;;;;;-147.86;100.00;-17609.17;105855;1253;72852;-47
2024/03/25 10:28:21;;;;;;;15.50;7.40;;;;;;;-147.86;100.00;-17609.17;105830;1259;63234;-47
2024/03/25 10:30:47;;;;;;;14.20;7.50;;;;;;;-147.86;100.00;-17609.17;105837;1253;61914;-47
2024/03/25 10:33:15;;;;;;;13.20;7.10;;;;;;;-147.86;100.00;-17609.17;105832;1253;76160;-46
2024/03/25 10:35:42;;;;;;;15.40;7.60;;;;;;;-147.86;100.00;-17609.17;105897;1256;66282;-48
2024/03/25 10:38:13;;;;;;;8.90;6.10;;;;;;;-147.86;100.00;-17609.17;105830;1253;73999;-47
2024/03/25 10:40:40;;;;;;;15.10;7.10;;;;;;;-147.86;100.00;-17609.17;105859;1256;61522;-47
2024/03/25 10:43:10;;;;;;;15.30;6.50;;;;;;;-147.86;100.00;-17609.17;105899;1253;61254;-46
2024/03/25 10:45:38;;;;;;;12.20;6.60;;;;;;;-147.86;100.00;-17609.17;105861;1257;75909;-46
2024/03/25 10:48:18;;;;;;;11.40;6.00;;;;;;;-147.86;100.00;-17609.17;105843;1256;66975;-49
2024/03/25 10:50:45;;;;;;;9.10;5.70;;;;;;;-147.86;100.00;-17609.17;105638;1254;73876;-47